createdAt,value
2022-08-28T00:01:09.707Z,19.07
2022-08-28T00:04:15.277Z,19.07
2022-08-28T00:07:21.340Z,19.04
2022-08-28T00:10:27.459Z,19.00
2022-08-28T00:13:33.667Z,18.96
2022-08-28T00:16:39.050Z,18.96
2022-08-28T00:19:44.476Z,18.93
2022-08-28T00:22:49.889Z,18.92
2022-08-28T00:25:55.931Z,18.96
2022-08-28T00:29:01.107Z,19.00
2022-08-28T00:32:07.634Z,19.00
2022-08-28T00:35:13.589Z,19.02
2022-08-28T00:38:19.943Z,19.12
2022-08-28T00:41:28.310Z,19.27
2022-08-28T00:44:33.851Z,19.38
2022-08-28T00:47:40.302Z,19.50
2022-08-28T00:51:02.937Z,19.52
2022-08-28T00:54:08.480Z,19.50
2022-08-28T00:57:14.312Z,19.48
2022-08-28T01:00:20.185Z,19.44
2022-08-28T01:03:26.566Z,19.39
2022-08-28T01:06:32.316Z,19.37
2022-08-28T01:09:38.108Z,19.35
2022-08-28T01:12:44.141Z,19.34
2022-08-28T01:15:50.116Z,19.37
2022-08-28T01:18:55.587Z,19.38
2022-08-28T01:22:02.077Z,19.36
2022-08-28T01:25:07.767Z,19.33
2022-08-28T01:28:14.013Z,19.31
2022-08-28T01:31:20.605Z,19.36
2022-08-28T01:34:26.670Z,19.34
2022-08-28T01:37:32.845Z,19.34
2022-08-28T01:40:39.656Z,19.36
2022-08-28T01:43:45.635Z,19.40
2022-08-28T01:46:51.174Z,19.51
2022-08-28T01:49:56.756Z,19.57
2022-08-28T01:53:03.462Z,19.62
2022-08-28T01:56:10.626Z,19.66
2022-08-28T01:59:16.109Z,19.64
2022-08-28T02:02:22.488Z,19.57
2022-08-28T02:05:30.538Z,19.53
2022-08-28T02:08:36.768Z,19.48
2022-08-28T02:11:46.533Z,19.44
2022-08-28T02:14:52.715Z,19.45
2022-08-28T02:17:58.139Z,19.39
2022-08-28T02:21:03.970Z,19.37
2022-08-28T02:27:36.875Z,19.32
2022-08-28T02:30:42.922Z,19.27
2022-08-28T02:33:48.301Z,19.17
2022-08-28T02:36:53.819Z,19.25
2022-08-28T02:40:00.770Z,19.29
2022-08-28T02:43:06.720Z,19.26
2022-08-28T02:46:12.203Z,19.21
2022-08-28T02:49:17.916Z,19.23
2022-08-28T02:52:26.588Z,19.26
2022-08-28T02:55:34.270Z,19.23
2022-08-28T02:58:40.244Z,19.21
2022-08-28T03:01:46.014Z,19.22
2022-08-28T03:04:51.299Z,19.23
2022-08-28T03:07:57.203Z,19.25
2022-08-28T03:11:03.144Z,19.27
2022-08-28T03:14:09.215Z,19.25
2022-08-28T03:17:14.987Z,19.23
2022-08-28T03:20:20.912Z,19.31
2022-08-28T03:26:55.938Z,19.38
2022-08-28T03:30:02.832Z,19.32
2022-08-28T03:33:08.714Z,19.51
2022-08-28T03:36:14.572Z,19.62
2022-08-28T03:39:21.094Z,19.69
2022-08-28T03:42:26.893Z,19.72
2022-08-28T03:45:32.936Z,19.76
2022-08-28T03:48:39.071Z,19.73
2022-08-28T03:51:48.125Z,19.68
2022-08-28T03:54:53.816Z,19.57
2022-08-28T03:57:59.676Z,19.62
2022-08-28T04:01:05.811Z,19.99
2022-08-28T04:04:13.594Z,20.01
2022-08-28T04:07:19.160Z,19.92
2022-08-28T04:10:24.966Z,20.10
2022-08-28T04:13:30.805Z,20.34
2022-08-28T04:16:37.030Z,20.31
2022-08-28T04:19:44.533Z,20.17
2022-08-28T04:22:49.909Z,19.92
2022-08-28T04:26:02.050Z,19.63
2022-08-28T04:29:07.743Z,19.47
2022-08-28T04:32:16.781Z,19.41
2022-08-28T04:35:22.449Z,19.38
2022-08-28T04:38:28.321Z,19.43
2022-08-28T04:41:38.875Z,19.48
2022-08-28T04:44:44.810Z,19.55
2022-08-28T04:47:50.764Z,19.56
2022-08-28T04:50:57.058Z,19.56
2022-08-28T04:54:02.585Z,19.45
2022-08-28T04:57:09.483Z,19.39
2022-08-28T05:00:15.069Z,19.40
2022-08-28T05:03:20.883Z,19.44
2022-08-28T05:06:28.212Z,19.43
2022-08-28T05:09:35.477Z,19.40
2022-08-28T05:12:40.937Z,19.45
2022-08-28T05:15:46.403Z,19.48
2022-08-28T05:18:54.121Z,19.52
2022-08-28T05:21:59.796Z,19.69
2022-08-28T05:25:05.454Z,19.79
2022-08-28T05:28:12.123Z,19.72
2022-08-28T05:31:18.178Z,19.58
2022-08-28T05:34:23.747Z,19.77
2022-08-28T05:37:29.379Z,19.98
2022-08-28T05:40:34.972Z,20.12
2022-08-28T05:43:40.598Z,20.21
2022-08-28T05:46:50.274Z,20.33
2022-08-28T05:49:56.028Z,20.24
2022-08-28T05:53:01.505Z,20.06
2022-08-28T05:56:07.468Z,19.87
2022-08-28T05:59:13.094Z,19.74
2022-08-28T06:02:19.022Z,19.58
2022-08-28T06:05:24.859Z,19.37
2022-08-28T06:08:34.417Z,19.17
2022-08-28T06:11:44.828Z,18.94
2022-08-28T06:14:51.915Z,18.81
2022-08-28T06:18:00.682Z,18.80
2022-08-28T06:21:07.158Z,18.85
2022-08-28T06:24:14.310Z,18.83
2022-08-28T06:27:20.259Z,18.79
2022-08-28T06:30:27.221Z,18.79
2022-08-28T06:33:35.828Z,18.73
2022-08-28T06:36:41.856Z,18.73
2022-08-28T06:39:49.203Z,18.82
2022-08-28T06:42:54.646Z,18.76
2022-08-28T06:46:08.141Z,18.74
2022-08-28T06:49:13.928Z,18.73
2022-08-28T06:52:19.731Z,18.63
2022-08-28T06:55:25.385Z,18.55
2022-08-28T06:58:31.201Z,18.62
2022-08-28T07:01:37.273Z,18.72
2022-08-28T07:04:43.063Z,18.76
2022-08-28T07:07:48.938Z,18.76
2022-08-28T07:10:55.052Z,18.82
2022-08-28T07:14:00.492Z,18.81
2022-08-28T07:17:07.362Z,18.76
2022-08-28T07:20:13.797Z,18.78
2022-08-28T07:23:31.778Z,18.80
2022-08-28T07:26:37.642Z,18.80
2022-08-28T07:29:45.151Z,18.87
2022-08-28T07:32:51.160Z,18.93
2022-08-28T07:35:56.764Z,18.86
2022-08-28T07:39:02.309Z,18.80
2022-08-28T07:42:08.145Z,18.90
2022-08-28T07:45:12.949Z,18.95
2022-08-28T07:48:32.543Z,19.07
2022-08-28T07:51:38.127Z,19.06
2022-08-28T07:54:43.748Z,19.11
2022-08-28T07:57:50.578Z,19.21
2022-08-28T08:00:57.036Z,19.35
2022-08-28T08:04:04.419Z,19.36
2022-08-28T08:07:09.952Z,19.31
2022-08-28T08:10:19.823Z,19.19
2022-08-28T08:13:26.152Z,19.11
2022-08-28T08:16:33.598Z,19.14
2022-08-28T08:19:39.688Z,19.25
2022-08-28T08:22:45.574Z,19.34
2022-08-28T08:25:51.535Z,19.30
2022-08-28T08:28:58.078Z,19.20
2022-08-28T08:32:06.068Z,19.23
2022-08-28T08:35:12.957Z,19.23
2022-08-28T08:38:18.679Z,19.37
2022-08-28T08:41:25.789Z,19.25
2022-08-28T08:44:34.040Z,19.13
2022-08-28T08:47:39.977Z,19.14
2022-08-28T08:50:45.949Z,18.95
2022-08-28T08:53:52.508Z,18.81
2022-08-28T08:56:58.285Z,18.75
2022-08-28T09:00:06.060Z,18.86
2022-08-28T09:03:12.743Z,18.98
2022-08-28T09:06:25.369Z,18.99
2022-08-28T09:09:49.650Z,19.01
2022-08-28T09:12:55.514Z,19.14
2022-08-28T09:16:01.119Z,19.11
2022-08-28T09:19:06.752Z,19.12
2022-08-28T09:22:12.218Z,18.97
2022-08-28T09:25:17.883Z,18.85
2022-08-28T09:28:24.346Z,18.75
2022-08-28T09:31:32.316Z,18.66
2022-08-28T09:34:39.254Z,18.69
2022-08-28T09:37:45.099Z,18.79
2022-08-28T09:41:17.387Z,18.92
2022-08-28T09:44:23.525Z,18.93
2022-08-28T09:47:29.460Z,19.01
2022-08-28T09:50:34.824Z,18.97
2022-08-28T09:53:40.482Z,18.98
2022-08-28T09:56:46.828Z,19.08
2022-08-28T09:59:54.738Z,19.10
2022-08-28T10:03:03.351Z,19.14
2022-08-28T10:06:14.088Z,19.17
2022-08-28T10:09:19.426Z,19.02
2022-08-28T10:12:25.581Z,18.85
2022-08-28T10:15:44.919Z,18.63
2022-08-28T10:18:50.693Z,18.55
2022-08-28T10:21:56.737Z,18.56
2022-08-28T10:25:02.659Z,18.50
2022-08-28T10:28:08.171Z,18.38
2022-08-28T10:31:13.868Z,18.49
2022-08-28T10:34:19.827Z,18.44
2022-08-28T10:37:25.318Z,18.45
2022-08-28T10:40:31.036Z,18.41
2022-08-28T10:43:39.013Z,18.40
2022-08-28T10:46:45.751Z,18.40
2022-08-28T10:49:51.624Z,18.48
2022-08-28T10:52:58.149Z,18.49
2022-08-28T10:56:04.035Z,18.57
2022-08-28T10:59:09.816Z,18.64
2022-08-28T11:02:16.892Z,18.76
2022-08-28T11:05:23.369Z,18.89
2022-08-28T11:08:28.826Z,18.83
2022-08-28T11:11:34.496Z,18.80
2022-08-28T11:14:48.088Z,18.80
2022-08-28T11:17:58.694Z,18.88
2022-08-28T11:21:04.968Z,19.05
2022-08-28T11:24:20.925Z,19.21
2022-08-28T11:27:27.085Z,19.18
2022-08-28T11:30:33.267Z,19.29
2022-08-28T11:33:39.168Z,19.34
2022-08-28T11:36:45.113Z,19.40
2022-08-28T11:39:51.025Z,19.47
2022-08-28T11:42:57.029Z,19.52
2022-08-28T11:46:02.815Z,19.58
2022-08-28T11:49:13.288Z,19.61
2022-08-28T11:52:19.019Z,19.68
2022-08-28T11:55:24.944Z,19.70
2022-08-28T11:58:30.952Z,19.72
2022-08-28T12:01:37.327Z,19.67
2022-08-28T12:04:43.024Z,19.54
2022-08-28T12:07:48.399Z,19.56
2022-08-28T12:11:19.871Z,19.55
2022-08-28T12:14:25.406Z,19.51
2022-08-28T12:17:31.476Z,19.42
2022-08-28T12:20:37.245Z,19.32
2022-08-28T12:23:42.796Z,19.31
2022-08-28T12:26:48.647Z,19.21
2022-08-28T12:29:53.968Z,19.11
2022-08-28T12:33:01.000Z,19.05
2022-08-28T12:36:06.489Z,18.94
2022-08-28T12:39:12.512Z,18.89
2022-08-28T12:42:18.238Z,18.97
2022-08-28T12:45:23.871Z,18.87
2022-08-28T12:48:33.027Z,18.64
2022-08-28T12:51:38.635Z,18.50
2022-08-28T12:54:44.304Z,18.34
2022-08-28T12:57:50.268Z,18.20
2022-08-28T13:00:56.136Z,18.11
2022-08-28T13:04:02.587Z,18.13
2022-08-28T13:07:08.152Z,18.11
2022-08-28T13:10:13.946Z,18.33
2022-08-28T13:13:19.966Z,18.34
2022-08-28T13:16:26.094Z,18.29
2022-08-28T13:19:32.002Z,18.46
2022-08-28T13:22:39.295Z,18.52
2022-08-28T13:25:45.035Z,18.53
2022-08-28T13:28:52.059Z,18.32
2022-08-28T13:31:59.486Z,18.36
2022-08-28T13:35:05.750Z,18.24
2022-08-28T13:38:11.712Z,18.07
2022-08-28T13:41:17.460Z,17.92
2022-08-28T13:44:23.430Z,17.77
2022-08-28T13:47:29.502Z,17.63
2022-08-28T13:50:35.697Z,17.48
2022-08-28T13:53:41.901Z,17.38
2022-08-28T13:56:47.387Z,17.40
2022-08-28T13:59:55.610Z,17.50
2022-08-28T14:03:19.175Z,17.59
2022-08-28T14:06:31.536Z,17.61
2022-08-28T14:09:37.699Z,17.56
2022-08-28T14:12:47.739Z,17.50
2022-08-28T14:15:53.429Z,17.53
2022-08-28T14:19:04.611Z,17.57
2022-08-28T14:22:10.040Z,17.58
2022-08-28T14:25:16.122Z,17.52
2022-08-28T14:28:22.140Z,17.66
2022-08-28T14:31:27.925Z,17.58
2022-08-28T14:34:33.855Z,17.49
2022-08-28T14:37:39.881Z,17.12
2022-08-28T14:40:45.563Z,16.84
2022-08-28T14:43:51.287Z,16.73
2022-08-28T14:46:57.375Z,16.60
2022-08-28T14:50:03.186Z,16.76
2022-08-28T14:53:08.908Z,16.82
2022-08-28T14:56:14.349Z,16.85
2022-08-28T14:59:23.983Z,16.81
2022-08-28T15:02:29.732Z,16.72
2022-08-28T15:05:35.680Z,16.89
2022-08-28T15:08:41.820Z,16.87
2022-08-28T15:11:50.695Z,16.95
2022-08-28T15:14:59.221Z,16.83
2022-08-28T15:18:05.104Z,16.60
2022-08-28T15:21:11.413Z,16.53
2022-08-28T15:24:16.996Z,16.47
2022-08-28T15:27:26.513Z,16.58
2022-08-28T15:30:32.531Z,16.69
2022-08-28T15:33:41.117Z,16.71
2022-08-28T15:36:54.521Z,16.63
2022-08-28T15:40:18.245Z,16.45
2022-08-28T15:43:24.271Z,16.42
2022-08-28T15:46:30.487Z,16.17
2022-08-28T15:49:46.137Z,15.91
2022-08-28T15:52:56.629Z,15.76
2022-08-28T15:56:04.508Z,15.78
2022-08-28T15:59:11.155Z,15.94
2022-08-28T16:02:17.287Z,15.69
2022-08-28T16:05:23.998Z,15.51
2022-08-28T16:08:31.886Z,15.60
2022-08-28T16:11:38.731Z,15.65
2022-08-28T16:14:46.152Z,15.66
2022-08-28T16:17:52.302Z,15.62
2022-08-28T16:21:05.229Z,15.40
2022-08-28T16:24:11.112Z,15.24
2022-08-28T16:27:16.689Z,15.25
2022-08-28T16:30:24.333Z,15.24
2022-08-28T16:33:30.440Z,15.13
2022-08-28T16:36:39.290Z,15.21
2022-08-28T16:39:44.791Z,15.15
2022-08-28T16:42:51.726Z,14.89
2022-08-28T16:46:01.411Z,14.68
2022-08-28T16:49:06.894Z,14.55
2022-08-28T16:52:12.464Z,14.36
2022-08-28T16:55:17.645Z,14.31
2022-08-28T16:58:23.880Z,14.11
2022-08-28T17:01:30.230Z,14.10
2022-08-28T17:04:38.172Z,14.13
2022-08-28T17:07:43.625Z,14.31
2022-08-28T17:10:49.281Z,14.24
2022-08-28T17:13:55.527Z,14.31
2022-08-28T17:17:07.730Z,14.30
2022-08-28T17:20:33.885Z,14.40
2022-08-28T17:23:38.533Z,14.38
2022-08-28T17:26:44.547Z,14.22
2022-08-28T17:29:50.104Z,14.14
2022-08-28T17:32:56.025Z,14.17
2022-08-28T17:36:01.874Z,14.26
2022-08-28T17:39:08.185Z,14.26
2022-08-28T17:42:13.828Z,14.20
2022-08-28T17:45:19.540Z,14.24
2022-08-28T17:48:25.153Z,14.16
2022-08-28T17:51:42.869Z,14.27
2022-08-28T17:54:49.360Z,14.43
2022-08-28T17:57:55.554Z,14.42
2022-08-28T18:01:01.183Z,14.42
2022-08-28T18:04:07.075Z,14.42
2022-08-28T18:07:12.851Z,14.45
2022-08-28T18:10:18.902Z,14.55
2022-08-28T18:13:24.916Z,14.54
2022-08-28T18:16:31.850Z,14.30
2022-08-28T18:19:40.083Z,14.19
2022-08-28T18:26:12.896Z,14.33
2022-08-28T18:29:18.736Z,14.40
2022-08-28T18:32:24.753Z,14.16
2022-08-28T18:35:31.967Z,14.13
2022-08-28T18:38:38.468Z,14.21
2022-08-28T18:41:44.816Z,14.24
2022-08-28T18:44:50.348Z,14.28
2022-08-28T18:47:56.031Z,14.34
2022-08-28T18:51:01.868Z,14.42
2022-08-28T18:54:07.262Z,14.48
2022-08-28T18:57:13.001Z,14.57
2022-08-28T19:00:18.558Z,14.75
2022-08-28T19:03:24.128Z,14.76
2022-08-28T19:06:30.193Z,14.81
2022-08-28T19:09:36.966Z,14.83
2022-08-28T19:12:42.839Z,14.81
2022-08-28T19:15:50.221Z,14.74
2022-08-28T19:18:55.996Z,14.82
2022-08-28T19:22:03.914Z,14.79
2022-08-28T19:25:11.416Z,14.74
2022-08-28T19:28:31.410Z,14.82
2022-08-28T19:31:37.262Z,14.78
2022-08-28T19:34:44.693Z,14.74
2022-08-28T19:37:50.877Z,14.74
2022-08-28T19:40:56.461Z,14.57
2022-08-28T19:44:02.187Z,14.49
2022-08-28T19:47:07.824Z,14.58
2022-08-28T19:50:16.898Z,14.66
2022-08-28T19:53:22.673Z,14.65
2022-08-28T19:56:28.805Z,14.68
2022-08-28T19:59:34.609Z,14.65
2022-08-28T20:02:40.592Z,14.69
2022-08-28T20:05:49.251Z,14.61
2022-08-28T20:08:55.101Z,14.56
2022-08-28T20:12:01.070Z,14.48
2022-08-28T20:15:06.498Z,14.40
2022-08-28T20:18:12.355Z,14.21
2022-08-28T20:21:28.842Z,14.12
2022-08-28T20:24:44.387Z,14.09
2022-08-28T20:27:49.717Z,14.08
2022-08-28T20:30:55.314Z,14.05
2022-08-28T20:34:00.706Z,13.95
2022-08-28T20:37:06.640Z,13.81
2022-08-28T20:40:12.336Z,13.81
2022-08-28T20:43:18.804Z,13.94
2022-08-28T20:46:24.670Z,14.12
2022-08-28T20:49:30.692Z,14.23
2022-08-28T20:52:36.453Z,14.33
2022-08-28T20:55:41.976Z,14.36
2022-08-28T20:58:47.294Z,14.34
2022-08-28T21:01:53.004Z,14.35
2022-08-28T21:04:59.001Z,14.32
2022-08-28T21:08:05.027Z,14.32
2022-08-28T21:11:10.935Z,14.41
2022-08-28T21:14:18.184Z,14.40
2022-08-28T21:17:29.703Z,14.41
2022-08-28T21:20:35.822Z,14.42
2022-08-28T21:23:47.292Z,14.46
2022-08-28T21:26:52.800Z,14.49
2022-08-28T21:29:58.326Z,14.55
2022-08-28T21:36:27.468Z,14.70
2022-08-28T21:39:33.341Z,14.79
2022-08-28T21:42:38.823Z,14.78
2022-08-28T21:45:44.329Z,14.70
2022-08-28T21:48:49.708Z,14.66
2022-08-28T21:51:55.410Z,14.64
2022-08-28T21:55:01.613Z,14.68
2022-08-28T21:58:07.291Z,14.65
2022-08-28T22:01:14.581Z,14.64
2022-08-28T22:04:20.121Z,14.62
2022-08-28T22:10:40.442Z,14.57
2022-08-28T22:13:10.979Z,14.47
2022-08-28T22:15:39.690Z,14.54
2022-08-28T22:18:08.295Z,14.56
2022-08-28T22:21:01.448Z,14.60
2022-08-28T22:23:35.094Z,14.63
2022-08-28T22:26:07.649Z,14.69
2022-08-28T22:28:41.844Z,14.77
2022-08-28T22:31:10.260Z,14.81
2022-08-28T22:33:59.051Z,14.83
2022-08-28T22:36:29.348Z,14.81
2022-08-28T22:38:58.461Z,14.77
2022-08-28T22:41:28.341Z,14.67
2022-08-28T22:43:56.480Z,14.57
2022-08-28T22:46:24.804Z,14.49
2022-08-28T22:48:59.421Z,14.50
2022-08-28T22:51:27.564Z,14.50
2022-08-28T22:53:56.844Z,14.63
2022-08-28T22:56:25.013Z,14.66
2022-08-28T22:58:54.610Z,14.79
2022-08-28T23:01:26.312Z,14.79
2022-08-28T23:04:19.387Z,14.85
2022-08-28T23:06:45.418Z,14.92
2022-08-28T23:09:16.591Z,15.00
2022-08-28T23:11:44.632Z,15.03
2022-08-28T23:14:15.160Z,15.08
2022-08-28T23:16:43.289Z,15.04
2022-08-28T23:19:21.002Z,15.03
2022-08-28T23:21:50.020Z,15.01
2022-08-28T23:24:18.885Z,14.93
2022-08-28T23:26:47.778Z,14.87
2022-08-28T23:29:20.357Z,14.79
2022-08-28T23:31:48.582Z,14.82
2022-08-28T23:34:16.719Z,14.76
2022-08-28T23:36:44.871Z,14.78
2022-08-28T23:39:14.594Z,14.75
2022-08-28T23:41:42.819Z,14.71
2022-08-28T23:44:17.877Z,14.71
2022-08-28T23:46:47.930Z,14.78
2022-08-28T23:49:18.267Z,14.77
2022-08-28T23:51:46.473Z,14.72
2022-08-28T23:54:14.688Z,14.69
2022-08-28T23:56:43.696Z,14.68
2022-08-28T23:59:13.362Z,14.66
